Time;durP1;ratioP1;P1;durP2;ratioP2;P2;SDS_P1;SDS_P2;PMS_P1;PMS_P2;Temp;Humidity;BMP_temperature;BMP_pressure;BME280_temperature;BME280_humidity;BME280_pressure;Samples;Min_cycle;Max_cycle;Signal;HPM_P1;HPM_P2
2022/01/20 00:01:27;;;;;;;8.05;3.20;;;;;;;1.48;89.18;97475.25;5035784;28;20077;-63
2022/01/20 00:03:54;;;;;;;5.88;3.55;;;;;;;1.52;88.54;97472.78;5044929;28;20048;-68
2022/01/20 00:09:09;;;;;;;6.97;3.55;;;;;;;1.41;89.00;97479.41;5043303;28;20485;-71
2022/01/20 00:28:09;;;;;;;6.40;3.45;;;;;;;1.40;88.54;97475.09;5029954;28;20559;-69
2022/01/20 00:31:06;;;;;;;5.75;3.08;;;;;;;1.44;88.25;97465.31;5042947;28;20048;-69
2022/01/20 00:33:34;;;;;;;5.78;2.95;;;;;;;1.38;88.45;97461.06;5035331;28;20187;-68
2022/01/20 00:38:36;;;;;;;6.10;3.10;;;;;;;1.44;88.26;97473.41;5040481;28;20115;-67
2022/01/20 00:41:02;;;;;;;10.02;3.15;;;;;;;1.47;88.42;97479.03;5021296;28;20556;-64
2022/01/20 00:43:28;;;;;;;5.38;3.05;;;;;;;1.45;87.99;97481.22;5017620;23;20397;-65
2022/01/20 00:45:54;;;;;;;6.40;4.03;;;;;;;1.44;87.87;97482.34;5024667;28;20045;-66
2022/01/20 00:48:20;;;;;;;5.40;2.83;;;;;;;1.38;87.91;97477.28;5015958;28;20132;-65
2022/01/20 00:50:46;;;;;;;5.65;3.38;;;;;;;1.41;87.69;97471.31;5021820;28;20071;-64
2022/01/20 00:53:12;;;;;;;5.90;3.22;;;;;;;1.34;87.81;97480.53;5026836;28;20037;-65
2022/01/20 00:55:39;;;;;;;7.25;3.58;;;;;;;1.40;87.96;97478.59;5035245;28;20048;-65
2022/01/20 00:58:04;;;;;;;7.03;3.28;;;;;;;1.44;88.00;97487.75;5019399;28;20038;-61
2022/01/20 01:00:30;;;;;;;5.57;3.00;;;;;;;1.41;87.45;97484.81;5021687;28;20565;-66
2022/01/20 01:02:56;;;;;;;6.18;3.13;;;;;;;1.38;87.67;97482.69;5023707;28;20057;-66
2022/01/20 01:05:22;;;;;;;8.13;3.40;;;;;;;1.40;87.07;97483.19;5015958;28;20582;-65
2022/01/20 01:07:50;;;;;;;5.57;2.97;;;;;;;1.46;86.65;97482.84;5002742;28;20042;-67
2022/01/20 01:10:25;;;;;;;5.70;3.38;;;;;;;1.49;87.33;97487.66;5013293;28;20038;-65
2022/01/20 01:13:08;;;;;;;6.78;3.72;;;;;;;1.45;87.32;97486.63;5022651;28;20045;-66
2022/01/20 01:15:42;;;;;;;4.85;3.10;;;;;;;1.44;87.40;97486.91;5018726;28;20049;-66
2022/01/20 01:23:22;;;;;;;8.75;3.25;;;;;;;1.38;87.83;97488.88;5016562;28;20103;-66
2022/01/20 01:25:48;;;;;;;5.85;3.38;;;;;;;1.37;87.93;97481.88;5020921;28;20041;-65
2022/01/20 01:28:13;;;;;;;6.32;3.25;;;;;;;1.39;87.93;97482.38;5017682;28;20094;-65
2022/01/20 01:31:05;;;;;;;6.05;3.50;;;;;;;1.42;88.22;97489.91;5026267;28;20175;-66
2022/01/20 01:33:29;;;;;;;5.20;3.00;;;;;;;1.42;88.65;97489.09;5017248;28;20041;-66
2022/01/20 01:35:57;;;;;;;6.45;3.78;;;;;;;1.40;87.55;97483.97;5018842;28;20042;-66
2022/01/20 01:38:36;;;;;;;4.90;3.20;;;;;;;1.38;88.43;97486.16;5029542;28;20262;-65
2022/01/20 01:41:14;;;;;;;4.38;3.08;;;;;;;1.36;88.87;97480.25;5020873;28;20100;-66
2022/01/20 01:43:43;;;;;;;5.63;2.95;;;;;;;1.35;88.35;97478.63;5021152;28;20462;-65
2022/01/20 01:46:11;;;;;;;6.57;3.17;;;;;;;1.38;88.07;97483.47;5022600;28;20096;-65
2022/01/20 01:48:40;;;;;;;5.80;2.97;;;;;;;1.44;87.70;97482.34;5020396;28;20220;-65
2022/01/20 01:51:06;;;;;;;4.60;2.90;;;;;;;1.45;87.18;97480.44;5017189;28;20517;-65
2022/01/20 01:53:31;;;;;;;6.68;3.58;;;;;;;1.51;87.80;97477.41;5018403;28;20037;-65
2022/01/20 01:55:57;;;;;;;5.28;3.33;;;;;;;1.42;87.58;97476.41;5018495;28;20124;-65
2022/01/20 01:58:22;;;;;;;5.13;3.30;;;;;;;1.44;88.96;97471.53;5016247;28;20666;-65
2022/01/20 02:00:48;;;;;;;6.20;3.60;;;;;;;1.37;89.86;97472.97;5022510;28;20064;-65
2022/01/20 02:03:14;;;;;;;7.50;3.05;;;;;;;1.41;90.11;97471.31;5010083;28;20045;-64
2022/01/20 02:19:39;;;;;;;5.90;3.47;;;;;;;1.43;92.30;97459.13;5040063;28;20072;-66
2022/01/20 02:22:05;;;;;;;8.05;3.30;;;;;;;1.37;91.69;97456.75;5047394;28;20493;-65
2022/01/20 02:24:31;;;;;;;6.68;3.78;;;;;;;1.40;91.42;97464.28;5041949;28;20047;-66
2022/01/20 02:26:58;;;;;;;6.43;3.65;;;;;;;1.43;92.29;97466.44;5054735;28;20428;-67
2022/01/20 02:29:24;;;;;;;9.15;4.38;;;;;;;1.32;93.45;97461.13;5035417;28;20139;-66
2022/01/20 02:31:58;;;;;;;6.93;3.83;;;;;;;1.40;93.48;97456.19;5039641;28;20041;-66
2022/01/20 02:34:24;;;;;;;8.77;4.43;;;;;;;1.39;92.12;97439.19;5034653;28;20365;-67
2022/01/20 02:36:50;;;;;;;7.15;4.07;;;;;;;1.42;92.23;97440.50;5040158;28;20660;-66
2022/01/20 02:44:54;;;;;;;9.50;4.55;;;;;;;1.46;93.17;97445.06;5039571;28;20041;-64
2022/01/20 02:47:23;;;;;;;14.90;5.50;;;;;;;1.40;94.19;97445.41;5033215;28;20385;-65
2022/01/20 02:49:50;;;;;;;12.37;6.13;;;;;;;1.34;94.97;97431.16;5036005;28;20069;-65
2022/01/20 02:52:16;;;;;;;10.43;5.47;;;;;;;1.24;96.97;97431.28;5033602;28;20291;-65
2022/01/20 02:54:42;;;;;;;12.82;6.15;;;;;;;1.15;97.62;97441.91;5035669;28;20052;-65
2022/01/20 02:57:08;;;;;;;11.77;5.75;;;;;;;1.18;98.55;97440.53;5030504;28;20444;-65
2022/01/20 02:59:36;;;;;;;12.73;6.28;;;;;;;1.18;100.00;97441.31;5040643;28;20036;-66
2022/01/20 03:02:04;;;;;;;11.88;5.88;;;;;;;1.12;100.00;97434.41;5038058;28;20481;-63
2022/01/20 03:04:30;;;;;;;10.10;5.88;;;;;;;1.09;100.00;97441.16;5039111;28;20045;-66
2022/01/20 03:06:56;;;;;;;12.57;6.47;;;;;;;0.93;100.00;97435.13;5038846;28;20052;-66
2022/01/20 03:09:21;;;;;;;12.98;6.65;;;;;;;0.78;100.00;97429.88;5043176;28;20037;-65
2022/01/20 03:11:48;;;;;;;13.45;6.80;;;;;;;0.76;100.00;97429.38;5041849;28;20048;-65
2022/01/20 03:14:17;;;;;;;15.35;7.55;;;;;;;0.63;100.00;97433.53;5035600;28;20132;-64
2022/01/20 03:16:43;;;;;;;17.67;7.95;;;;;;;0.52;100.00;97432.00;5053289;28;20087;-64
2022/01/20 03:19:08;;;;;;;15.95;7.80;;;;;;;0.51;100.00;97436.59;5035214;28;20048;-64
2022/01/20 03:21:34;;;;;;;13.05;7.40;;;;;;;0.42;100.00;97435.59;5043062;28;20503;-64
2022/01/20 03:23:59;;;;;;;16.88;7.93;;;;;;;0.52;100.00;97448.19;5044201;28;20091;-63
2022/01/20 03:26:25;;;;;;;14.48;7.78;;;;;;;0.55;100.00;97439.53;5037051;28;20067;-65
2022/01/20 03:28:50;;;;;;;13.48;7.35;;;;;;;0.61;100.00;97438.38;5044646;28;20550;-64
2022/01/20 03:31:17;;;;;;;14.75;7.65;;;;;;;0.58;100.00;97433.59;5039583;28;20048;-65
2022/01/20 03:33:42;;;;;;;13.85;7.80;;;;;;;0.64;100.00;97439.72;5043756;28;20065;-64
2022/01/20 03:36:08;;;;;;;14.93;8.10;;;;;;;0.49;100.00;97437.97;5040446;28;20037;-64
2022/01/20 03:38:33;;;;;;;14.73;7.93;;;;;;;0.32;100.00;97430.28;5045471;28;20080;-64
2022/01/20 03:40:59;;;;;;;16.85;7.90;;;;;;;0.22;100.00;97438.44;5055282;28;20037;-64
2022/01/20 03:43:24;;;;;;;14.32;7.70;;;;;;;0.11;100.00;97438.53;5052501;28;20038;-63
2022/01/20 03:45:55;;;;;;;18.40;8.98;;;;;;;0.01;100.00;97441.31;5041512;28;20080;-63
2022/01/20 03:48:21;;;;;;;18.05;8.35;;;;;;;0.13;100.00;97433.69;5042400;28;20068;-65
2022/01/20 03:51:05;;;;;;;21.85;9.60;;;;;;;0.07;100.00;97439.38;5050776;28;20437;-64
2022/01/20 03:53:36;;;;;;;15.15;8.50;;;;;;;0.23;100.00;97446.25;5035027;28;20044;-63
2022/01/20 03:56:03;;;;;;;16.60;8.45;;;;;;;0.18;100.00;97444.41;5056454;28;20037;-65
2022/01/20 03:58:29;;;;;;;15.88;8.32;;;;;;;0.19;100.00;97443.31;5040395;28;20663;-63
2022/01/20 04:00:54;;;;;;;20.27;8.90;;;;;;;0.15;100.00;97438.78;5043883;28;20041;-64
2022/01/20 04:03:21;;;;;;;19.90;9.68;;;;;;;0.07;100.00;97444.75;5037089;28;20573;-65
2022/01/20 04:06:00;;;;;;;16.92;9.13;;;;;;;0.14;100.00;97445.25;5042727;28;20131;-64
2022/01/20 04:08:32;;;;;;;14.30;8.00;;;;;;;0.15;100.00;97461.13;5039474;28;20133;-66
2022/01/20 04:10:59;;;;;;;14.82;8.70;;;;;;;0.16;100.00;97467.31;5044747;28;20040;-64
2022/01/20 04:13:29;;;;;;;22.30;8.75;;;;;;;0.14;100.00;97474.88;5053966;28;20087;-64
2022/01/20 04:15:55;;;;;;;13.85;7.20;;;;;;;0.39;100.00;97465.81;5044253;28;20049;-64
2022/01/20 04:18:25;;;;;;;16.88;8.45;;;;;;;0.39;100.00;97463.13;5047792;28;20044;-65
2022/01/20 04:20:50;;;;;;;17.02;7.90;;;;;;;0.31;100.00;97459.13;5050772;28;20052;-66
2022/01/20 04:23:16;;;;;;;14.70;7.93;;;;;;;0.23;100.00;97461.63;5037604;28;20041;-65
2022/01/20 04:25:42;;;;;;;17.63;8.35;;;;;;;0.23;100.00;97453.53;5039839;28;20140;-65
2022/01/20 04:28:07;;;;;;;14.18;8.15;;;;;;;0.16;100.00;97446.59;5037917;28;20382;-65
2022/01/20 04:30:33;;;;;;;18.25;9.40;;;;;;;0.22;100.00;97449.22;5041904;28;20041;-69
2022/01/20 04:32:59;;;;;;;20.23;9.75;;;;;;;0.09;100.00;97438.03;5041522;28;20036;-65
2022/01/20 04:35:24;;;;;;;20.10;9.35;;;;;;;0.11;100.00;97445.81;5026728;28;20057;-64
2022/01/20 04:37:52;;;;;;;22.63;10.60;;;;;;;0.14;100.00;97445.25;5041458;28;20049;-65
2022/01/20 04:40:19;;;;;;;25.20;10.65;;;;;;;0.14;100.00;97456.03;5037898;28;20037;-64
2022/01/20 04:42:46;;;;;;;18.00;9.68;;;;;;;0.35;100.00;97456.69;5035735;28;20041;-65
2022/01/20 04:45:17;;;;;;;22.17;10.43;;;;;;;0.31;100.00;97461.84;5033745;28;20041;-65
2022/01/20 04:47:58;;;;;;;21.05;9.75;;;;;;;0.45;100.00;97455.78;5042791;28;20082;-64
2022/01/20 04:58:37;;;;;;;23.23;9.25;;;;;;;0.52;100.00;97457.09;5022111;28;20490;-65
2022/01/20 05:01:03;;;;;;;17.58;8.95;;;;;;;0.49;100.00;97459.53;5021316;28;20067;-66
2022/01/20 05:03:29;;;;;;;16.05;8.55;;;;;;;0.42;100.00;97459.06;5055687;28;20045;-63
2022/01/20 05:05:55;;;;;;;13.75;7.47;;;;;;;0.47;100.00;97456.31;5042179;28;20554;-65
2022/01/20 05:08:23;;;;;;;19.17;9.50;;;;;;;0.36;100.00;97466.34;5036123;28;20072;-66
2022/01/20 05:10:50;;;;;;;19.95;9.50;;;;;;;0.26;100.00;97469.94;5043077;28;20477;-65
2022/01/20 05:13:32;;;;;;;15.10;7.90;;;;;;;0.32;100.00;97473.41;5034772;28;20060;-65
2022/01/20 05:15:58;;;;;;;14.23;7.90;;;;;;;0.32;100.00;97470.72;5040324;28;20492;-67
2022/01/20 05:18:23;;;;;;;14.13;8.10;;;;;;;0.23;100.00;97470.50;5028357;28;20080;-65
2022/01/20 05:20:49;;;;;;;14.50;7.93;;;;;;;0.27;100.00;97473.44;5044233;28;20043;-66
2022/01/20 05:23:14;;;;;;;14.68;7.38;;;;;;;0.19;100.00;97469.47;5037834;28;20421;-65
2022/01/20 05:25:40;;;;;;;13.57;6.65;;;;;;;0.15;100.00;97463.03;5042505;28;20084;-64
2022/01/20 05:28:06;;;;;;;11.70;6.38;;;;;;;0.09;100.00;97466.81;5037379;28;20651;-65
2022/01/20 05:30:32;;;;;;;12.25;6.53;;;;;;;0.09;100.00;97472.22;5036895;28;20053;-65
2022/01/20 05:32:59;;;;;;;12.07;6.93;;;;;;;-0.01;100.00;97476.59;5038440;28;20102;-65
2022/01/20 05:35:26;;;;;;;11.98;6.72;;;;;;;0.06;100.00;97476.28;5045678;28;20098;-65
2022/01/20 05:37:51;;;;;;;10.95;6.05;;;;;;;0.15;100.00;97466.53;5057408;28;20045;-65
2022/01/20 05:40:17;;;;;;;13.63;6.78;;;;;;;0.23;100.00;97470.50;5038270;28;20155;-64
2022/01/20 05:42:43;;;;;;;11.02;6.70;;;;;;;0.25;100.00;97468.31;5041306;28;20528;-64
2022/01/20 05:45:09;;;;;;;10.85;5.43;;;;;;;0.17;100.00;97463.56;5034740;28;20090;-65
2022/01/20 05:47:42;;;;;;;10.48;6.55;;;;;;;0.10;100.00;97466.56;5047882;28;20116;-65
2022/01/20 05:50:08;;;;;;;13.40;6.97;;;;;;;0.07;100.00;97461.72;5039673;28;20040;-65
2022/01/20 05:52:40;;;;;;;12.45;6.20;;;;;;;0.19;100.00;97462.19;5039381;28;20461;-66
2022/01/20 05:55:05;;;;;;;11.10;6.63;;;;;;;0.31;100.00;97461.03;5024425;28;20076;-65
2022/01/20 05:57:31;;;;;;;11.05;5.90;;;;;;;0.29;100.00;97457.78;5033717;28;20076;-64
2022/01/20 05:59:56;;;;;;;8.55;5.47;;;;;;;0.32;100.00;97454.53;5038399;28;20049;-65
2022/01/20 06:02:35;;;;;;;9.35;5.65;;;;;;;0.27;100.00;97459.97;5023036;28;21055;-64
2022/01/20 06:05:00;;;;;;;7.63;5.00;;;;;;;0.42;100.00;97450.97;5041079;28;20047;-64
2022/01/20 06:07:26;;;;;;;10.13;6.30;;;;;;;0.41;100.00;97444.75;5031724;28;20041;-65
2022/01/20 06:09:51;;;;;;;8.80;5.35;;;;;;;0.35;100.00;97441.31;5039876;28;20033;-65
2022/01/20 06:12:17;;;;;;;8.13;5.22;;;;;;;0.22;100.00;97450.06;5024638;28;20131;-64
2022/01/20 06:14:42;;;;;;;10.05;5.85;;;;;;;0.21;100.00;97447.63;5041136;28;20409;-65
2022/01/20 06:17:08;;;;;;;13.13;5.63;;;;;;;0.32;100.00;97449.94;5036336;28;20041;-65
2022/01/20 06:19:33;;;;;;;10.20;5.68;;;;;;;0.37;100.00;97444.53;5039438;28;20041;-65
2022/01/20 06:21:59;;;;;;;8.48;5.65;;;;;;;0.39;100.00;97452.34;5039105;28;20041;-64
2022/01/20 06:24:24;;;;;;;10.65;5.78;;;;;;;0.49;100.00;97456.84;5036052;28;20389;-65
2022/01/20 06:26:49;;;;;;;11.20;5.40;;;;;;;0.42;100.00;97450.97;5040773;28;20047;-64
2022/01/20 06:29:15;;;;;;;8.90;4.68;;;;;;;0.47;100.00;97451.75;5031442;28;20382;-65
2022/01/20 06:31:40;;;;;;;8.68;5.43;;;;;;;0.53;100.00;97458.69;5032133;28;20103;-65
2022/01/20 06:34:06;;;;;;;9.88;4.75;;;;;;;0.54;100.00;97470.25;5032840;28;20045;-65
2022/01/20 06:36:31;;;;;;;9.10;4.65;;;;;;;0.59;100.00;97470.22;5046698;28;20515;-65
2022/01/20 06:38:57;;;;;;;8.05;4.55;;;;;;;0.62;100.00;97477.75;5039103;28;20132;-64
2022/01/20 06:41:22;;;;;;;8.10;4.80;;;;;;;0.60;100.00;97474.53;5032798;28;20467;-64
2022/01/20 06:43:48;;;;;;;9.00;4.80;;;;;;;0.77;100.00;97468.72;5040358;28;20044;-64
2022/01/20 06:46:14;;;;;;;7.55;4.82;;;;;;;0.90;100.00;97472.63;5032674;28;20055;-65
2022/01/20 06:48:39;;;;;;;8.75;3.92;;;;;;;0.81;100.00;97475.19;5040480;28;20051;-64
2022/01/20 06:51:05;;;;;;;6.85;5.15;;;;;;;0.77;100.00;97476.81;5032695;28;20053;-63
2022/01/20 06:53:30;;;;;;;7.90;4.80;;;;;;;0.74;100.00;97474.69;5039639;28;20044;-66
2022/01/20 06:55:55;;;;;;;9.93;5.82;;;;;;;0.83;100.00;97472.16;5039711;28;20405;-65
2022/01/20 06:58:23;;;;;;;8.82;4.80;;;;;;;0.93;100.00;97483.66;5028618;28;20037;-64
2022/01/20 07:00:48;;;;;;;8.10;5.28;;;;;;;0.82;100.00;97476.75;5036985;28;20045;-67
2022/01/20 07:03:14;;;;;;;6.95;4.60;;;;;;;1.05;100.00;97477.09;5030241;28;20423;-63
2022/01/20 07:05:40;;;;;;;8.00;4.72;;;;;;;1.27;100.00;97480.09;5040013;28;20044;-63
2022/01/20 07:08:05;;;;;;;7.80;4.93;;;;;;;1.20;100.00;97487.72;5032375;28;20052;-65
2022/01/20 07:10:30;;;;;;;7.63;4.60;;;;;;;1.10;100.00;97479.75;5040023;28;20107;-65
2022/01/20 07:12:56;;;;;;;7.35;4.85;;;;;;;0.88;100.00;97486.44;5039243;28;20083;-64
2022/01/20 07:15:21;;;;;;;8.80;5.38;;;;;;;0.86;100.00;97477.00;5033090;28;20643;-62
2022/01/20 07:17:47;;;;;;;9.23;5.20;;;;;;;0.90;100.00;97484.25;5037402;28;20097;-64
2022/01/20 07:20:14;;;;;;;6.93;4.50;;;;;;;0.94;100.00;97482.59;5032055;28;20073;-65
2022/01/20 07:22:39;;;;;;;8.27;5.10;;;;;;;0.83;100.00;97481.09;5038078;28;20060;-63
2022/01/20 07:25:05;;;;;;;7.55;4.82;;;;;;;0.88;100.00;97489.13;5033254;28;20041;-64
2022/01/20 07:27:31;;;;;;;7.57;4.50;;;;;;;0.91;100.00;97495.84;5035657;28;20044;-65
2022/01/20 07:29:56;;;;;;;7.68;5.00;;;;;;;0.79;100.00;97496.19;5045192;28;20048;-64
2022/01/20 07:32:23;;;;;;;8.90;5.10;;;;;;;0.76;100.00;97486.78;5033456;28;20868;-63
2022/01/20 07:34:48;;;;;;;7.68;4.68;;;;;;;0.85;100.00;97487.00;5033905;28;20079;-63
2022/01/20 07:37:14;;;;;;;7.47;4.93;;;;;;;0.87;100.00;97489.41;5033188;28;20091;-64
2022/01/20 07:39:41;;;;;;;8.30;5.25;;;;;;;0.81;100.00;97487.84;5040364;28;20083;-64
2022/01/20 07:42:07;;;;;;;8.25;5.10;;;;;;;0.72;100.00;97488.47;5032347;28;20045;-64
2022/01/20 07:44:32;;;;;;;8.70;5.10;;;;;;;0.93;100.00;97493.66;5037653;28;20174;-64
2022/01/20 07:46:58;;;;;;;8.70;5.45;;;;;;;0.90;100.00;97497.75;5035946;28;20136;-65
2022/01/20 07:49:23;;;;;;;9.32;5.38;;;;;;;0.88;100.00;97499.09;5024347;28;20056;-63
2022/01/20 07:51:48;;;;;;;15.13;7.80;;;;;;;0.99;100.00;97492.53;5033750;28;20033;-65
2022/01/20 07:54:14;;;;;;;9.57;6.28;;;;;;;0.86;100.00;97506.66;5032434;28;20497;-64
2022/01/20 07:56:39;;;;;;;10.38;5.35;;;;;;;0.91;100.00;97509.31;5038712;28;20045;-64
2022/01/20 07:59:06;;;;;;;7.63;5.43;;;;;;;1.02;100.00;97499.25;5033706;28;20106;-65
2022/01/20 08:01:32;;;;;;;9.13;5.00;;;;;;;0.98;100.00;97487.41;5042767;28;20401;-66
2022/01/20 08:03:57;;;;;;;8.52;5.03;;;;;;;1.15;100.00;97495.84;5045061;28;20033;-65
2022/01/20 08:06:23;;;;;;;8.05;4.95;;;;;;;0.97;100.00;97494.69;5038556;28;20507;-66
2022/01/20 08:08:50;;;;;;;8.15;5.28;;;;;;;0.89;100.00;97506.91;5042628;28;20041;-66
2022/01/20 08:11:17;;;;;;;8.93;5.03;;;;;;;0.95;100.00;97511.19;5031067;28;20517;-65
2022/01/20 08:13:43;;;;;;;8.15;5.00;;;;;;;1.01;100.00;97511.09;5043462;28;20080;-66
2022/01/20 08:16:08;;;;;;;8.25;5.18;;;;;;;1.00;100.00;97498.72;5033251;28;20076;-65
2022/01/20 08:18:33;;;;;;;8.10;5.13;;;;;;;0.95;100.00;97500.38;5056453;28;20052;-65
2022/01/20 08:20:59;;;;;;;8.43;5.07;;;;;;;1.05;100.00;97517.56;5042733;28;20652;-65
2022/01/20 08:23:24;;;;;;;9.40;5.68;;;;;;;0.91;100.00;97528.22;5035521;28;20970;-65
2022/01/20 08:25:50;;;;;;;7.13;5.43;;;;;;;1.00;100.00;97537.28;5042443;28;20040;-65
2022/01/20 08:28:18;;;;;;;7.18;4.85;;;;;;;1.11;100.00;97536.09;5035128;28;20378;-66
2022/01/20 08:30:43;;;;;;;8.07;5.40;;;;;;;1.10;100.00;97545.28;5042162;28;20080;-65
2022/01/20 08:33:09;;;;;;;7.45;4.85;;;;;;;1.15;100.00;97536.34;5036511;28;20501;-65
2022/01/20 08:35:34;;;;;;;8.90;5.60;;;;;;;1.01;100.00;97533.50;5043061;28;20049;-64
2022/01/20 08:38:03;;;;;;;8.43;5.70;;;;;;;1.08;100.00;97549.34;5041155;28;20099;-65
2022/01/20 08:40:29;;;;;;;6.80;5.28;;;;;;;1.09;100.00;97548.28;5035430;28;20076;-65
2022/01/20 08:42:56;;;;;;;6.85;4.53;;;;;;;1.08;100.00;97546.66;5042869;28;20079;-64
2022/01/20 08:45:25;;;;;;;6.88;5.35;;;;;;;1.14;100.00;97535.53;5036191;28;20603;-64
2022/01/20 08:47:52;;;;;;;10.60;5.93;;;;;;;1.02;100.00;97543.19;5046371;28;20045;-64
2022/01/20 08:50:18;;;;;;;7.90;5.72;;;;;;;1.09;100.00;97543.69;5037221;28;20037;-64
2022/01/20 08:52:43;;;;;;;8.90;5.93;;;;;;;1.18;100.00;97545.78;5033425;28;20129;-65
2022/01/20 08:55:09;;;;;;;10.07;5.68;;;;;;;1.11;100.00;97546.88;5026738;28;20053;-64
2022/01/20 08:57:34;;;;;;;7.68;5.18;;;;;;;1.02;100.00;97550.50;5038436;28;20051;-64
2022/01/20 09:00:00;;;;;;;7.55;4.82;;;;;;;1.11;100.00;97554.97;5045428;28;20033;-64
2022/01/20 09:02:26;;;;;;;9.38;5.30;;;;;;;1.13;100.00;97555.53;5037160;28;20145;-66
2022/01/20 09:04:52;;;;;;;8.70;5.57;;;;;;;1.40;100.00;97564.16;5041796;28;20484;-66
2022/01/20 09:07:18;;;;;;;8.63;4.93;;;;;;;1.45;100.00;97564.91;5037900;28;20048;-67
2022/01/20 09:09:46;;;;;;;6.85;4.93;;;;;;;1.42;100.00;97562.78;5043529;28;20068;-65
2022/01/20 09:12:18;;;;;;;9.60;5.65;;;;;;;1.36;100.00;97557.75;5034355;28;20128;-65
2022/01/20 09:17:31;;;;;;;6.75;4.57;;;;;;;1.41;100.00;97571.97;5040532;28;20478;-64
2022/01/20 09:19:57;;;;;;;6.47;4.43;;;;;;;1.56;100.00;97570.22;5054789;28;20147;-66
2022/01/20 09:22:24;;;;;;;7.05;4.10;;;;;;;1.42;100.00;97564.69;5035162;28;20055;-66
2022/01/20 09:24:49;;;;;;;7.00;4.95;;;;;;;1.32;100.00;97568.31;5042085;28;20505;-65
2022/01/20 09:27:15;;;;;;;6.40;4.40;;;;;;;1.57;100.00;97567.22;5036692;28;20045;-64
2022/01/20 09:29:41;;;;;;;7.00;4.50;;;;;;;1.59;100.00;97572.34;5035404;28;20152;-64
2022/01/20 09:32:10;;;;;;;7.38;5.22;;;;;;;1.55;100.00;97568.59;5033396;28;20048;-66
2022/01/20 09:34:36;;;;;;;8.38;5.45;;;;;;;1.49;100.00;97578.66;5041482;28;20106;-64
2022/01/20 09:37:02;;;;;;;10.18;5.47;;;;;;;1.46;100.00;97577.34;5041702;28;20473;-66
2022/01/20 09:39:27;;;;;;;8.43;4.82;;;;;;;1.57;100.00;97590.72;5037316;28;20482;-64
2022/01/20 09:41:53;;;;;;;7.28;4.57;;;;;;;1.57;100.00;97598.81;5039958;28;20037;-64
2022/01/20 09:44:19;;;;;;;10.25;5.68;;;;;;;1.45;100.00;97608.09;5015585;28;20071;-65
2022/01/20 09:46:45;;;;;;;7.43;4.97;;;;;;;1.59;100.00;97608.25;5037313;28;20049;-65
2022/01/20 09:49:12;;;;;;;10.57;6.13;;;;;;;1.69;100.00;97610.03;5035841;28;20037;-66
2022/01/20 09:51:39;;;;;;;8.50;5.43;;;;;;;1.48;100.00;97601.34;5039130;28;20323;-65
2022/01/20 09:54:05;;;;;;;7.20;4.82;;;;;;;1.56;100.00;97603.41;5032427;28;20049;-65
2022/01/20 09:56:31;;;;;;;6.20;4.63;;;;;;;1.57;100.00;97613.13;5035919;28;20504;-65
2022/01/20 09:58:57;;;;;;;8.40;5.05;;;;;;;1.64;100.00;97607.38;5032901;28;20126;-64
2022/01/20 10:01:46;;;;;;;9.10;5.22;;;;;;;1.58;100.00;97616.63;5025439;28;20673;-65
2022/01/20 10:04:38;;;;;;;6.28;4.18;;;;;;;1.68;100.00;97617.34;5030570;28;20037;-66
2022/01/20 10:07:09;;;;;;;7.63;4.47;;;;;;;1.87;100.00;97622.00;5033899;28;20025;-67
2022/01/20 10:09:41;;;;;;;8.45;5.30;;;;;;;1.79;100.00;97628.84;5058718;28;20045;-66
2022/01/20 10:12:09;;;;;;;5.55;4.15;;;;;;;1.87;100.00;97633.63;5037326;28;20133;-66
2022/01/20 10:14:45;;;;;;;6.78;4.43;;;;;;;2.10;100.00;97626.59;5038034;28;20051;-65
2022/01/20 10:17:31;;;;;;;6.80;4.10;;;;;;;2.11;100.00;97624.72;5031033;28;20044;-64
2022/01/20 10:19:57;;;;;;;6.13;4.25;;;;;;;2.13;100.00;97622.50;5040305;28;20482;-65
2022/01/20 10:22:26;;;;;;;5.97;4.15;;;;;;;2.21;100.00;97624.56;5034613;28;20297;-64
2022/01/20 10:25:14;;;;;;;7.10;4.65;;;;;;;2.10;100.00;97634.69;5040666;28;20037;-64
2022/01/20 10:27:48;;;;;;;6.32;3.90;;;;;;;2.09;100.00;97618.78;5034115;28;20389;-65
2022/01/20 10:30:14;;;;;;;6.35;4.18;;;;;;;2.12;100.00;97614.69;5035137;28;20128;-65
2022/01/20 10:32:47;;;;;;;7.55;4.72;;;;;;;2.26;100.00;97613.69;5039313;28;20041;-65
2022/01/20 10:35:15;;;;;;;8.82;4.68;;;;;;;2.41;100.00;97617.28;5034817;28;20041;-64
2022/01/20 10:38:11;;;;;;;6.07;4.50;;;;;;;2.13;100.00;97609.00;5038567;28;20049;-64
2022/01/20 10:40:59;;;;;;;6.63;4.18;;;;;;;2.12;100.00;97601.19;5039491;28;20075;-65
2022/01/20 10:43:28;;;;;;;9.10;4.97;;;;;;;2.25;100.00;97592.34;5032266;28;20041;-64
2022/01/20 10:46:10;;;;;;;8.73;4.50;;;;;;;2.24;100.00;97580.75;5037344;28;20632;-65
2022/01/20 10:48:36;;;;;;;11.00;5.30;;;;;;;2.42;100.00;97575.66;5036176;28;20283;-66
2022/01/20 10:51:02;;;;;;;7.82;4.75;;;;;;;2.60;100.00;97582.94;5035244;28;20106;-65
2022/01/20 10:53:28;;;;;;;6.97;4.82;;;;;;;2.70;100.00;97589.31;5035610;28;20490;-66
2022/01/20 10:56:05;;;;;;;6.88;4.25;;;;;;;2.57;100.00;97583.53;5039819;28;20037;-65
2022/01/20 10:58:31;;;;;;;7.45;4.90;;;;;;;2.59;100.00;97575.94;5039527;28;20091;-65
2022/01/20 11:00:57;;;;;;;6.72;3.92;;;;;;;2.54;100.00;97572.50;5032645;28;20053;-63
2022/01/20 11:03:26;;;;;;;7.80;5.03;;;;;;;2.65;100.00;97555.84;5033698;28;20373;-65
2022/01/20 11:05:53;;;;;;;10.02;5.75;;;;;;;2.80;100.00;97546.66;5038638;28;20033;-65
2022/01/20 11:08:20;;;;;;;7.95;4.68;;;;;;;2.72;100.00;97544.66;5033293;28;20040;-65
2022/01/20 11:10:46;;;;;;;6.18;3.95;;;;;;;2.71;100.00;97553.84;5038762;28;20503;-64
2022/01/20 11:13:17;;;;;;;6.90;4.20;;;;;;;2.84;100.00;97547.66;5016455;28;20127;-65
2022/01/20 11:15:43;;;;;;;5.18;3.55;;;;;;;2.69;100.00;97545.22;5038058;28;20049;-65
2022/01/20 11:18:09;;;;;;;6.55;4.07;;;;;;;2.72;100.00;97547.34;5034131;28;20098;-65
2022/01/20 11:20:49;;;;;;;6.50;3.40;;;;;;;2.89;100.00;97548.72;5037280;28;20041;-63
2022/01/20 11:23:14;;;;;;;6.97;4.75;;;;;;;2.83;100.00;97545.28;5032225;28;20041;-65
2022/01/20 11:25:43;;;;;;;8.02;4.00;;;;;;;2.72;100.00;97551.94;5039721;28;20041;-66
2022/01/20 11:28:20;;;;;;;6.93;3.85;;;;;;;2.69;100.00;97545.22;5040951;28;20757;-66
2022/01/20 11:30:56;;;;;;;5.45;3.35;;;;;;;2.80;100.00;97551.28;5038145;28;20091;-63
2022/01/20 11:33:41;;;;;;;5.88;3.30;;;;;;;2.68;100.00;97555.25;5034054;28;20048;-65
2022/01/20 11:36:29;;;;;;;7.35;4.30;;;;;;;2.81;100.00;97542.88;5032733;28;20052;-65
2022/01/20 11:39:04;;;;;;;8.68;4.30;;;;;;;3.04;100.00;97545.72;5046994;28;20052;-64
2022/01/20 11:41:46;;;;;;;9.90;4.53;;;;;;;3.19;100.00;97539.28;5056883;28;20510;-66
2022/01/20 11:44:26;;;;;;;5.43;3.50;;;;;;;3.24;99.61;97531.84;5034308;28;21778;-64
2022/01/20 11:46:53;;;;;;;6.70;3.47;;;;;;;3.21;100.00;97537.88;5043367;28;20682;-65
2022/01/20 11:49:20;;;;;;;5.25;3.63;;;;;;;3.21;100.00;97542.47;5034387;28;20075;-66
2022/01/20 11:51:52;;;;;;;5.78;3.05;;;;;;;3.64;100.00;97555.78;5044066;28;20052;-65
2022/01/20 11:54:28;;;;;;;5.10;2.83;;;;;;;3.71;95.11;97548.06;5031801;28;20048;-65
2022/01/20 11:57:08;;;;;;;5.22;2.53;;;;;;;3.42;96.91;97548.31;5042390;28;20040;-64
2022/01/20 11:59:38;;;;;;;;;;;;;;;3.43;96.71;97545.31;5042313;28;20083;-65
2022/01/20 12:02:04;;;;;;;4.25;2.50;;;;;;;3.61;95.38;97540.13;5039868;28;20007;-64
2022/01/20 12:04:35;;;;;;;4.50;2.78;;;;;;;3.75;94.26;97538.22;5036432;28;20164;-65
2022/01/20 12:07:01;;;;;;;6.35;2.42;;;;;;;3.79;94.36;97536.50;5042182;28;20033;-66
2022/01/20 12:09:31;;;;;;;5.53;2.50;;;;;;;3.44;95.57;97527.19;5036496;28;20443;-66
2022/01/20 12:11:56;;;;;;;7.13;3.20;;;;;;;3.33;94.83;97528.44;5041577;28;20055;-65
2022/01/20 12:14:38;;;;;;;5.63;3.17;;;;;;;3.27;95.57;97533.16;5039320;28;20048;-66
2022/01/20 12:17:07;;;;;;;5.15;2.95;;;;;;;3.40;94.96;97535.09;5038858;28;20033;-66
2022/01/20 12:19:34;;;;;;;4.95;3.83;;;;;;;3.43;94.28;97525.56;5041657;28;20052;-62
2022/01/20 12:22:02;;;;;;;4.85;3.10;;;;;;;3.35;93.63;97527.06;5043223;28;20070;-65
2022/01/20 12:24:28;;;;;;;4.63;2.45;;;;;;;3.40;95.53;97520.72;5039338;28;20720;-65
2022/01/20 12:26:53;;;;;;;18.27;8.35;;;;;;;3.43;93.84;97499.28;5042882;28;20071;-64
2022/01/20 12:29:19;;;;;;;6.70;3.47;;;;;;;3.55;94.85;97506.91;5036372;28;20041;-65
2022/01/20 12:31:46;;;;;;;6.35;4.03;;;;;;;3.34;97.84;97506.50;5043016;28;20083;-64
2022/01/20 12:34:12;;;;;;;5.85;3.80;;;;;;;3.31;97.84;97504.38;5037678;28;20041;-64
2022/01/20 12:36:39;;;;;;;6.38;4.25;;;;;;;3.32;98.32;97510.63;5042764;28;20056;-65